This is the latest recevied weather packets stored in our database for station/object KJ5IIV. If no packets are shown the sender has not sent any weather packets the latest 10 day(s).
| Time | Temp. | Humidity | Pressure | Rain* | Wind** | Luminosity | Snow |
|---|---|---|---|---|---|---|---|
| 1777327641 | 30.56° C | 69% | 1008.3 hPa | 0 mm | - | 194 W/m² | - |
| 1777327337 | 31.67° C | 65% | 1008.3 hPa | 0 mm | - | 160 W/m² | - |
| 1777327034 | 31.67° C | 63% | 1008.3 hPa | 0 mm | - | 278 W/m² | - |
| 1777326731 | 31.67° C | 63% | 1008.2 hPa | 0 mm | - | 280 W/m² | - |
| 1777326428 | 31.67° C | 62% | 1008.2 hPa | 0 mm | - | 197 W/m² | - |
| 1777326126 | 31.67° C | 63% | 1008.2 hPa | 0 mm | - | 286 W/m² | - |
| 1777325824 | 31.67° C | 62% | 1008.3 hPa | 0 mm | - | 483 W/m² | - |
| 1777325522 | 31.67° C | 61% | 1008.3 hPa | 0 mm | - | 500 W/m² | - |
| 1777325219 | 31.11° C | 65% | 1008.5 hPa | 0 mm | - | 547 W/m² | - |
| 1777324915 | 31.67° C | 62% | 1008.4 hPa | 0 mm | - | 214 W/m² | - |
| 1777324613 | 31.11° C | 63% | 1008.5 hPa | 0 mm | - | 338 W/m² | - |
| 1777324311 | 31.11° C | 65% | 1008.4 hPa | 0 mm | - | 179 W/m² | - |
| 1777324008 | 31.67° C | 63% | 1008.5 hPa | 0 mm | - | 242 W/m² | - |
| 1777323705 | 32.22° C | 59% | 1008.5 hPa | 0 mm | - | 234 W/m² | - |
| 1777323402 | 32.78° C | 56% | 1008.6 hPa | 0 mm | - | 620 W/m² | - |
| 1777323100 | 31.67° C | 63% | 1008.6 hPa | 0 mm | - | 630 W/m² | - |
| 1777322798 | 31.67° C | 64% | 1008.5 hPa | 0 mm | - | 281 W/m² | - |
| 1777322495 | 31.67° C | 65% | 1008.8 hPa | 0 mm | - | 261 W/m² | - |
| 1777322192 | 32.22° C | 62% | 1008.7 hPa | 0 mm | - | 241 W/m² | - |
| 1777321890 | 32.78° C | 62% | 1008.5 hPa | 0 mm | - | 666 W/m² | - |
| 1777321586 | 32.78° C | 61% | 1008.8 hPa | 0 mm | - | 697 W/m² | - |
| 1777321283 | 32.22° C | 64% | 1008.8 hPa | 0 mm | - | 732 W/m² | - |
| 1777320980 | 31.67° C | 64% | 1008.5 hPa | 0 mm | - | 723 W/m² | - |
| 1777320678 | 31.11° C | 65% | 1009 hPa | 0 mm | - | 677 W/m² | - |
| 1777320375 | 31.11° C | 65% | 1008.7 hPa | 0 mm | - | 354 W/m² | - |
* Rain latest hour (hover to see other rain measurements)
** Current wind speed in m/s (hover to see current wind gust speed)